createdAt,value
2023-03-31T00:02:13.784Z,12.25
2023-03-31T00:04:46.408Z,12.80
2023-03-31T00:07:16.347Z,13.25
2023-03-31T00:09:46.259Z,14.07
2023-03-31T00:12:16.666Z,17.42
2023-03-31T00:14:43.972Z,5.80
2023-03-31T00:17:11.588Z,15.80
2023-03-31T00:19:40.269Z,7.63
2023-03-31T00:22:08.443Z,10.13
2023-03-31T00:24:36.298Z,13.88
2023-03-31T00:27:04.263Z,13.60
2023-03-31T00:29:31.593Z,9.40
2023-03-31T00:31:59.843Z,10.50
2023-03-31T00:34:27.347Z,11.98
2023-03-31T00:36:56.578Z,9.18
2023-03-31T00:39:24.823Z,8.75
2023-03-31T00:41:51.656Z,10.93
2023-03-31T00:44:27.927Z,14.52
2023-03-31T00:47:06.425Z,7.05
2023-03-31T00:49:57.116Z,7.95
2023-03-31T00:52:38.627Z,10.60
2023-03-31T00:55:09.241Z,5.88
2023-03-31T00:57:42.019Z,14.18
2023-03-31T01:00:16.858Z,8.32
2023-03-31T01:02:52.350Z,7.47
2023-03-31T01:05:40.201Z,10.02
2023-03-31T01:08:07.560Z,9.70
2023-03-31T01:10:41.800Z,14.20
2023-03-31T01:13:15.033Z,7.07
2023-03-31T01:15:43.346Z,5.00
2023-03-31T01:18:12.706Z,15.38
2023-03-31T01:21:03.865Z,5.85
2023-03-31T01:23:48.793Z,10.98
2023-03-31T01:26:30.623Z,9.75
2023-03-31T01:29:06.163Z,9.05
2023-03-31T01:31:51.218Z,11.38
2023-03-31T01:34:52.990Z,12.80
2023-03-31T01:37:45.191Z,14.18
2023-03-31T01:40:33.537Z,6.22
2023-03-31T01:43:06.257Z,12.50
2023-03-31T01:45:35.890Z,9.05
2023-03-31T01:48:08.175Z,11.52
2023-03-31T01:51:03.275Z,11.40
2023-03-31T01:53:35.674Z,10.55
2023-03-31T01:56:10.122Z,10.07
2023-03-31T02:01:23.469Z,10.52
2023-03-31T02:03:56.774Z,11.43
2023-03-31T02:06:29.328Z,9.73
2023-03-31T02:09:02.260Z,13.27
2023-03-31T02:11:32.508Z,10.73
2023-03-31T02:14:02.002Z,12.45
2023-03-31T02:16:32.407Z,10.98
2023-03-31T02:19:03.955Z,8.95
2023-03-31T02:21:33.378Z,12.18
2023-03-31T02:24:04.468Z,8.70
2023-03-31T02:26:37.986Z,14.63
2023-03-31T02:29:04.858Z,10.02
2023-03-31T02:32:03.889Z,11.80
2023-03-31T02:34:30.690Z,16.70
2023-03-31T02:36:57.357Z,18.30
2023-03-31T02:39:30.390Z,12.73
2023-03-31T02:41:57.459Z,14.50
2023-03-31T02:44:24.679Z,14.38
2023-03-31T02:46:51.853Z,12.65
2023-03-31T02:49:19.821Z,10.48
2023-03-31T02:52:27.228Z,11.75
2023-03-31T02:55:19.945Z,9.80
2023-03-31T02:57:52.420Z,10.85
2023-03-31T03:00:24.941Z,10.85
2023-03-31T03:03:03.718Z,10.00
2023-03-31T03:05:49.858Z,12.30
2023-03-31T03:08:27.930Z,11.95
2023-03-31T03:11:18.327Z,11.23
2023-03-31T03:13:49.903Z,12.85
2023-03-31T03:16:25.896Z,10.77
2023-03-31T03:19:00.733Z,14.07
2023-03-31T03:21:28.008Z,16.15
2023-03-31T03:23:54.890Z,10.82
2023-03-31T03:26:23.606Z,10.75
2023-03-31T03:28:53.422Z,13.02
2023-03-31T03:31:23.846Z,10.25
2023-03-31T03:33:51.043Z,14.00
2023-03-31T03:36:19.041Z,14.57
2023-03-31T03:38:45.703Z,10.30
2023-03-31T03:41:12.293Z,10.02
2023-03-31T03:43:38.837Z,10.27
2023-03-31T03:46:05.750Z,14.38
2023-03-31T03:48:32.631Z,10.98
2023-03-31T03:51:02.601Z,10.68
2023-03-31T03:53:29.191Z,20.20
2023-03-31T03:55:55.973Z,13.18
2023-03-31T03:58:22.731Z,10.60
2023-03-31T04:00:50.109Z,10.77
2023-03-31T04:03:16.944Z,11.75
2023-03-31T04:05:43.698Z,15.75
2023-03-31T04:08:10.438Z,7.93
2023-03-31T04:10:38.297Z,12.75
2023-03-31T04:13:04.913Z,16.52
2023-03-31T04:15:31.495Z,19.63
2023-03-31T04:17:58.437Z,9.82
2023-03-31T04:20:27.978Z,17.65
2023-03-31T04:22:54.858Z,12.50
2023-03-31T04:25:22.801Z,12.82
2023-03-31T04:27:55.389Z,12.18
2023-03-31T04:30:24.004Z,12.18
2023-03-31T04:32:56.362Z,12.40
2023-03-31T04:35:24.906Z,10.32
2023-03-31T04:37:59.228Z,13.63
2023-03-31T04:42:52.672Z,12.10
2023-03-31T04:45:19.244Z,16.00
2023-03-31T04:47:45.818Z,13.75
2023-03-31T04:50:16.087Z,18.48
2023-03-31T04:52:43.883Z,18.75
2023-03-31T04:55:10.686Z,13.52
2023-03-31T04:57:37.402Z,9.73
2023-03-31T05:00:08.176Z,11.98
2023-03-31T05:02:34.993Z,14.77
2023-03-31T05:05:01.641Z,17.23
2023-03-31T05:07:28.250Z,16.92
2023-03-31T05:09:54.787Z,16.77
2023-03-31T05:12:21.596Z,11.27
2023-03-31T05:14:48.242Z,11.00
2023-03-31T05:17:14.782Z,11.65
2023-03-31T05:19:41.431Z,11.50
2023-03-31T05:22:07.948Z,14.88
2023-03-31T05:24:34.648Z,19.10
2023-03-31T05:27:01.578Z,9.73
2023-03-31T05:29:28.128Z,12.55
2023-03-31T05:31:55.413Z,14.95
2023-03-31T05:34:22.248Z,13.65
2023-03-31T05:36:50.533Z,17.48
2023-03-31T05:39:17.128Z,14.05
2023-03-31T05:41:43.673Z,12.85
2023-03-31T05:44:10.468Z,13.68
2023-03-31T05:46:37.059Z,13.35
2023-03-31T05:49:03.634Z,17.27
2023-03-31T05:51:30.450Z,12.70
2023-03-31T05:53:56.972Z,18.60
2023-03-31T05:56:23.855Z,20.45
2023-03-31T05:58:50.638Z,17.17
2023-03-31T06:01:22.864Z,14.25
2023-03-31T06:03:50.225Z,18.17
2023-03-31T06:06:17.210Z,18.58
2023-03-31T06:08:45.973Z,12.55
2023-03-31T06:11:19.474Z,23.60
2023-03-31T06:13:46.864Z,17.98
2023-03-31T06:16:15.636Z,20.83
2023-03-31T06:18:42.462Z,70.78
2023-03-31T06:21:13.811Z,16.55
2023-03-31T06:23:40.395Z,14.15
2023-03-31T06:26:08.619Z,11.80
2023-03-31T06:28:36.234Z,15.93
2023-03-31T06:31:06.065Z,23.50
2023-03-31T06:33:34.277Z,23.00
2023-03-31T06:36:04.190Z,11.98
2023-03-31T06:38:31.570Z,20.13
2023-03-31T06:40:58.818Z,17.13
2023-03-31T06:43:25.422Z,12.82
2023-03-31T06:45:56.875Z,22.02
2023-03-31T06:48:25.439Z,20.13
2023-03-31T06:50:54.302Z,19.40
2023-03-31T06:53:22.370Z,22.55
2023-03-31T06:55:49.095Z,22.42
2023-03-31T06:58:15.759Z,22.92
2023-03-31T07:00:42.539Z,19.80
2023-03-31T07:03:09.259Z,24.20
2023-03-31T07:05:35.879Z,34.40
2023-03-31T07:08:02.709Z,34.38
2023-03-31T07:10:31.207Z,31.92
2023-03-31T07:12:58.318Z,39.13
2023-03-31T07:15:26.078Z,40.35
2023-03-31T07:17:54.083Z,34.58
2023-03-31T07:20:20.936Z,45.80
2023-03-31T07:22:48.804Z,35.03
2023-03-31T07:25:17.540Z,33.70
2023-03-31T07:27:44.605Z,42.63
2023-03-31T07:30:16.434Z,35.58
2023-03-31T07:32:43.641Z,42.03
2023-03-31T07:35:11.821Z,43.60
2023-03-31T07:37:41.235Z,41.85
2023-03-31T07:40:10.030Z,38.15
2023-03-31T07:42:36.801Z,51.83
2023-03-31T07:45:06.092Z,38.22
2023-03-31T07:47:33.407Z,42.90
2023-03-31T07:50:00.060Z,37.90
2023-03-31T07:52:26.648Z,39.22
2023-03-31T07:54:53.328Z,30.92
2023-03-31T07:57:20.100Z,34.63
2023-03-31T07:59:47.421Z,32.70
2023-03-31T08:02:16.596Z,38.35
2023-03-31T08:04:44.454Z,39.92
2023-03-31T08:07:13.136Z,35.95
2023-03-31T08:09:40.431Z,35.72
2023-03-31T08:12:07.386Z,34.08
2023-03-31T08:14:41.181Z,32.95
2023-03-31T08:17:09.508Z,36.38
2023-03-31T08:19:36.133Z,40.55
2023-03-31T08:22:02.963Z,47.22
2023-03-31T08:24:29.518Z,41.65
2023-03-31T08:26:56.251Z,39.92
2023-03-31T08:29:22.781Z,45.33
2023-03-31T08:31:49.355Z,39.97
2023-03-31T08:34:16.021Z,40.33
2023-03-31T08:36:42.988Z,37.53
2023-03-31T08:39:09.685Z,58.47
2023-03-31T08:41:57.445Z,51.17
2023-03-31T08:44:31.131Z,42.28
2023-03-31T08:47:00.867Z,54.67
2023-03-31T08:49:30.397Z,47.80
2023-03-31T08:52:02.513Z,44.78
2023-03-31T08:54:36.693Z,45.28
2023-03-31T08:57:11.365Z,59.35
2023-03-31T08:59:39.117Z,44.17
2023-03-31T09:02:31.381Z,50.70
2023-03-31T09:05:07.259Z,48.75
2023-03-31T09:07:51.844Z,63.70
2023-03-31T09:10:28.955Z,48.33
2023-03-31T09:12:58.517Z,44.05
2023-03-31T09:15:50.237Z,51.50
2023-03-31T09:18:30.538Z,49.10
2023-03-31T09:21:15.153Z,53.63
2023-03-31T09:23:47.562Z,42.38
2023-03-31T09:26:27.387Z,53.92
2023-03-31T09:28:57.426Z,34.13
2023-03-31T09:31:24.796Z,45.80
2023-03-31T09:33:57.739Z,46.42
2023-03-31T09:36:24.419Z,44.13
2023-03-31T09:38:51.627Z,60.40
2023-03-31T09:41:21.649Z,46.20
2023-03-31T09:43:49.711Z,50.83
2023-03-31T09:46:38.458Z,43.40
2023-03-31T09:49:13.164Z,97.78
2023-03-31T09:51:44.499Z,54.00
2023-03-31T09:54:21.494Z,64.22
2023-03-31T09:56:53.687Z,41.97
2023-03-31T09:59:23.834Z,45.03
2023-03-31T10:01:53.714Z,51.70
2023-03-31T10:04:25.900Z,40.03
2023-03-31T10:06:54.336Z,48.88
2023-03-31T10:09:27.470Z,44.30
2023-03-31T10:11:58.981Z,39.75
2023-03-31T10:14:45.013Z,32.42
2023-03-31T10:17:28.101Z,42.88
2023-03-31T10:19:58.542Z,46.83
2023-03-31T10:22:32.833Z,48.30
2023-03-31T10:25:22.177Z,44.17
2023-03-31T10:27:53.016Z,41.72
2023-03-31T10:30:35.343Z,52.58
2023-03-31T10:33:19.172Z,46.95
2023-03-31T10:35:54.481Z,39.47
2023-03-31T10:38:48.227Z,41.45
2023-03-31T10:41:20.567Z,44.58
2023-03-31T10:44:00.500Z,49.40
2023-03-31T10:46:44.230Z,34.78
2023-03-31T10:49:26.452Z,39.43
2023-03-31T10:51:55.388Z,44.38
2023-03-31T10:54:22.231Z,31.58
2023-03-31T10:56:54.904Z,30.42
2023-03-31T11:00:06.108Z,33.67
2023-03-31T11:03:13.796Z,48.40
2023-03-31T11:05:55.526Z,40.55
2023-03-31T11:08:34.005Z,39.70
2023-03-31T11:11:28.791Z,43.72
2023-03-31T11:14:38.293Z,36.88
2023-03-31T11:17:13.606Z,48.65
2023-03-31T11:20:07.225Z,40.50
2023-03-31T11:22:56.334Z,50.55
2023-03-31T11:25:28.977Z,45.63
2023-03-31T11:28:34.141Z,36.63
2023-03-31T11:31:22.257Z,42.33
2023-03-31T11:34:01.696Z,37.97
2023-03-31T11:36:43.650Z,40.95
2023-03-31T11:39:35.377Z,40.95
2023-03-31T11:42:08.581Z,40.05
2023-03-31T11:44:46.245Z,32.95
2023-03-31T11:47:19.017Z,34.85
2023-03-31T11:49:54.377Z,36.75
2023-03-31T11:52:29.337Z,36.85
2023-03-31T11:55:21.552Z,39.78
2023-03-31T11:57:56.744Z,41.00
2023-03-31T12:00:28.637Z,32.85
2023-03-31T12:03:04.678Z,38.03
2023-03-31T12:05:34.539Z,38.28
2023-03-31T12:08:08.565Z,35.58
2023-03-31T12:10:43.796Z,32.85
2023-03-31T12:13:47.523Z,35.90
2023-03-31T12:16:38.414Z,23.13
2023-03-31T12:19:14.282Z,33.70
2023-03-31T12:21:48.303Z,40.72
2023-03-31T12:24:14.980Z,35.72
2023-03-31T12:27:30.190Z,36.33
2023-03-31T12:30:14.572Z,28.65
2023-03-31T12:32:46.752Z,38.22
2023-03-31T12:35:27.455Z,26.48
2023-03-31T12:38:19.230Z,33.95
2023-03-31T12:40:49.236Z,31.48
2023-03-31T12:43:42.196Z,31.00
2023-03-31T12:46:39.641Z,32.40
2023-03-31T12:49:43.849Z,30.02
2023-03-31T12:52:44.432Z,38.45
2023-03-31T12:55:52.156Z,36.05
2023-03-31T12:58:32.433Z,33.13
2023-03-31T13:01:08.375Z,25.88
2023-03-31T13:03:35.420Z,22.45
2023-03-31T13:06:03.653Z,28.33
2023-03-31T13:08:51.548Z,34.80
2023-03-31T13:11:22.625Z,25.67
2023-03-31T13:14:00.871Z,25.48
2023-03-31T13:16:28.855Z,30.85
2023-03-31T13:18:56.310Z,31.27
2023-03-31T13:21:24.934Z,36.88
2023-03-31T13:23:53.560Z,24.98
2023-03-31T13:26:40.206Z,32.95
2023-03-31T13:29:16.525Z,32.50
2023-03-31T13:32:01.345Z,38.10
2023-03-31T13:34:31.242Z,20.63
2023-03-31T13:37:36.891Z,39.22
2023-03-31T13:40:28.321Z,30.95
2023-03-31T13:43:16.633Z,28.73
2023-03-31T13:46:14.354Z,37.08
2023-03-31T13:49:06.009Z,35.08
2023-03-31T13:51:50.461Z,36.53
2023-03-31T13:54:29.841Z,31.10
2023-03-31T13:57:38.394Z,26.40
2023-03-31T14:00:12.468Z,30.98
2023-03-31T14:03:03.467Z,25.30
2023-03-31T14:05:39.884Z,22.48
2023-03-31T14:08:25.773Z,23.27
2023-03-31T14:10:53.068Z,29.08
2023-03-31T14:13:29.265Z,20.27
2023-03-31T14:16:02.506Z,28.13
2023-03-31T14:18:33.888Z,18.13
2023-03-31T14:21:18.765Z,20.30
2023-03-31T14:24:18.511Z,25.50
2023-03-31T14:27:06.570Z,22.83
2023-03-31T14:29:55.977Z,18.58
2023-03-31T14:32:45.973Z,26.90
2023-03-31T14:35:28.969Z,26.35
2023-03-31T14:37:56.950Z,27.65
2023-03-31T14:40:25.463Z,30.00
2023-03-31T14:42:52.524Z,32.40
2023-03-31T14:45:25.238Z,15.70
2023-03-31T14:48:14.969Z,23.67
2023-03-31T14:50:46.622Z,20.25
2023-03-31T14:53:18.278Z,14.82
2023-03-31T14:55:58.040Z,16.25
2023-03-31T14:58:35.013Z,17.27
2023-03-31T15:01:06.986Z,32.22
2023-03-31T15:03:37.547Z,15.75
2023-03-31T15:06:05.390Z,41.85
2023-03-31T15:08:33.117Z,29.15
2023-03-31T15:11:12.926Z,20.38
2023-03-31T15:14:01.229Z,14.60
2023-03-31T15:16:42.655Z,24.98
2023-03-31T15:19:22.961Z,26.65
2023-03-31T15:21:56.486Z,20.75
2023-03-31T15:24:23.780Z,25.80
2023-03-31T15:27:02.450Z,21.27
2023-03-31T15:29:38.435Z,26.95
2023-03-31T15:32:13.492Z,28.35
2023-03-31T15:34:43.321Z,26.45
2023-03-31T15:37:10.615Z,18.98
2023-03-31T15:39:38.607Z,30.77
2023-03-31T15:42:07.848Z,20.08
2023-03-31T15:44:39.645Z,22.58
2023-03-31T15:47:21.740Z,26.73
2023-03-31T15:49:55.404Z,21.00
2023-03-31T15:52:26.438Z,20.83
2023-03-31T15:54:53.222Z,23.88
2023-03-31T15:57:19.966Z,25.00
2023-03-31T16:02:25.693Z,23.83
2023-03-31T16:04:57.057Z,18.67
2023-03-31T16:07:27.430Z,25.63
2023-03-31T16:10:09.081Z,19.27
2023-03-31T16:12:39.997Z,20.80
2023-03-31T16:15:06.959Z,21.45
2023-03-31T16:17:50.566Z,22.05
2023-03-31T16:20:24.763Z,25.35
2023-03-31T16:23:01.181Z,19.83
2023-03-31T16:25:31.738Z,21.88
2023-03-31T16:28:01.353Z,27.52
2023-03-31T16:30:40.103Z,27.75
2023-03-31T16:33:18.200Z,20.27
2023-03-31T16:35:51.302Z,22.23
2023-03-31T16:38:18.551Z,20.83
2023-03-31T16:40:47.255Z,19.42
2023-03-31T16:43:21.922Z,24.23
2023-03-31T16:45:56.654Z,22.42
2023-03-31T16:48:26.025Z,18.42
2023-03-31T16:50:54.549Z,24.73
2023-03-31T16:53:34.629Z,26.80
2023-03-31T16:56:09.796Z,24.50
2023-03-31T16:58:37.798Z,28.48
2023-03-31T17:01:08.862Z,27.65
2023-03-31T17:03:38.427Z,19.13
2023-03-31T17:06:10.810Z,31.35
2023-03-31T17:08:39.717Z,25.33
2023-03-31T17:11:14.082Z,27.98
2023-03-31T17:13:42.234Z,28.15
2023-03-31T17:16:19.165Z,25.10
2023-03-31T17:18:48.846Z,34.10
2023-03-31T17:21:19.494Z,32.00
2023-03-31T17:23:46.988Z,27.17
2023-03-31T17:26:14.563Z,28.02
2023-03-31T17:28:41.725Z,25.80
2023-03-31T17:31:16.889Z,26.45
2023-03-31T17:33:44.053Z,25.58
2023-03-31T17:36:11.517Z,29.30
2023-03-31T17:38:42.025Z,23.95
2023-03-31T17:41:13.046Z,29.10
2023-03-31T17:43:40.244Z,19.40
2023-03-31T17:46:13.268Z,20.25
2023-03-31T17:48:40.492Z,26.73
2023-03-31T17:51:14.903Z,26.73
2023-03-31T17:56:09.063Z,33.92
2023-03-31T17:58:35.797Z,23.95
2023-03-31T18:01:04.981Z,31.95
2023-03-31T18:03:31.740Z,23.60
2023-03-31T18:06:03.361Z,31.90
2023-03-31T18:08:30.088Z,27.55
2023-03-31T18:10:56.770Z,29.13
2023-03-31T18:13:24.337Z,25.63
2023-03-31T18:15:52.898Z,32.35
2023-03-31T18:18:20.749Z,29.05
2023-03-31T18:20:47.911Z,35.63
2023-03-31T18:23:14.935Z,29.02
2023-03-31T18:25:48.380Z,36.17
2023-03-31T18:28:17.715Z,30.10
2023-03-31T18:30:44.802Z,27.80
2023-03-31T18:33:11.646Z,28.13
2023-03-31T18:35:39.124Z,28.20
2023-03-31T18:38:06.104Z,25.75
2023-03-31T18:40:32.894Z,34.65
2023-03-31T18:42:59.507Z,21.75
2023-03-31T18:45:28.075Z,33.33
2023-03-31T18:47:55.073Z,31.35
2023-03-31T18:50:23.309Z,28.60
2023-03-31T18:52:52.513Z,24.75
2023-03-31T18:55:20.310Z,33.47
2023-03-31T18:57:47.340Z,28.55
2023-03-31T19:00:14.924Z,30.35
2023-03-31T19:02:42.077Z,31.00
2023-03-31T19:05:09.264Z,34.70
2023-03-31T19:07:36.006Z,36.80
2023-03-31T19:10:02.671Z,32.33
2023-03-31T19:12:29.198Z,32.95
2023-03-31T19:14:56.052Z,41.08
2023-03-31T19:17:22.657Z,27.33
2023-03-31T19:19:50.228Z,30.30
2023-03-31T19:22:17.023Z,35.42
2023-03-31T19:24:45.141Z,34.50
2023-03-31T19:27:13.179Z,29.42
2023-03-31T19:29:39.724Z,24.83
2023-03-31T19:32:06.469Z,37.40
2023-03-31T19:34:33.878Z,31.60
2023-03-31T19:37:02.146Z,31.55
2023-03-31T19:39:28.787Z,30.10
2023-03-31T19:41:55.405Z,25.05
2023-03-31T19:44:22.112Z,37.45
2023-03-31T19:46:48.653Z,33.63
2023-03-31T19:49:15.500Z,37.03
2023-03-31T19:51:42.274Z,37.85
2023-03-31T19:54:11.383Z,33.13
2023-03-31T19:56:38.493Z,38.53
2023-03-31T19:59:06.001Z,25.90
2023-03-31T20:01:32.829Z,34.00
2023-03-31T20:03:59.743Z,28.58
2023-03-31T20:06:29.742Z,27.80
2023-03-31T20:08:58.859Z,26.52
2023-03-31T20:11:27.038Z,34.70
2023-03-31T20:13:55.255Z,30.42
2023-03-31T20:16:24.493Z,27.77
2023-03-31T20:18:56.895Z,38.05
2023-03-31T20:21:27.257Z,35.95
2023-03-31T20:23:54.863Z,34.25
2023-03-31T20:26:25.260Z,33.63
2023-03-31T20:28:54.480Z,31.98
2023-03-31T20:31:24.509Z,31.63
2023-03-31T20:33:53.611Z,29.90
2023-03-31T20:36:23.725Z,32.97
2023-03-31T20:38:52.416Z,28.13
2023-03-31T20:41:21.162Z,34.83
2023-03-31T20:43:48.382Z,28.55
2023-03-31T20:46:15.055Z,29.50
2023-03-31T20:48:44.744Z,28.27
2023-03-31T20:51:15.362Z,34.50
2023-03-31T20:53:48.819Z,30.23
2023-03-31T20:56:18.696Z,32.90
2023-03-31T20:58:46.409Z,33.03
2023-03-31T21:01:14.312Z,29.35
2023-03-31T21:03:50.634Z,34.78
2023-03-31T21:06:18.941Z,36.22
2023-03-31T21:08:50.583Z,36.40
2023-03-31T21:11:18.125Z,27.05
2023-03-31T21:13:45.593Z,33.47
2023-03-31T21:16:12.702Z,38.70
2023-03-31T21:18:39.350Z,38.22
2023-03-31T21:21:09.009Z,35.15
2023-03-31T21:23:35.845Z,38.47
2023-03-31T21:26:03.936Z,32.75
2023-03-31T21:28:32.595Z,37.70
2023-03-31T21:31:05.149Z,36.45
2023-03-31T21:33:33.394Z,27.48
2023-03-31T21:36:00.109Z,36.33
2023-03-31T21:38:28.593Z,35.58
2023-03-31T21:40:58.250Z,23.65
2023-03-31T21:43:26.026Z,33.88
2023-03-31T21:45:57.545Z,32.97
2023-03-31T21:48:26.450Z,26.27
2023-03-31T21:50:54.940Z,33.50
2023-03-31T21:53:23.099Z,39.58
2023-03-31T21:55:55.425Z,34.05
2023-03-31T21:58:28.675Z,29.10
2023-03-31T22:01:02.078Z,42.35
2023-03-31T22:03:29.198Z,37.33
2023-03-31T22:05:56.901Z,28.10
2023-03-31T22:08:24.240Z,31.65
2023-03-31T22:10:53.090Z,37.97
2023-03-31T22:13:21.821Z,35.03
2023-03-31T22:15:48.757Z,34.42
2023-03-31T22:18:16.782Z,32.00
2023-03-31T22:20:44.091Z,32.83
2023-03-31T22:23:10.871Z,28.98
2023-03-31T22:25:37.805Z,43.08
2023-03-31T22:28:07.044Z,36.97
2023-03-31T22:30:34.131Z,34.95
2023-03-31T22:33:01.153Z,32.53
2023-03-31T22:35:28.656Z,32.20
2023-03-31T22:37:55.665Z,31.00
2023-03-31T22:40:22.279Z,24.92
2023-03-31T22:42:48.900Z,32.47
2023-03-31T22:45:16.482Z,47.08
2023-03-31T22:47:43.185Z,33.28
2023-03-31T22:50:10.622Z,34.08
2023-03-31T22:52:37.293Z,39.13
2023-03-31T22:55:04.271Z,31.48
2023-03-31T22:57:31.147Z,37.65
2023-03-31T22:59:57.691Z,38.28
2023-03-31T23:02:24.678Z,32.25
2023-03-31T23:04:51.388Z,26.15
2023-03-31T23:07:18.023Z,28.38
2023-03-31T23:09:44.544Z,33.42
2023-03-31T23:12:11.116Z,40.30
2023-03-31T23:14:37.879Z,34.13
2023-03-31T23:17:04.470Z,32.28
2023-03-31T23:19:31.959Z,37.92
2023-03-31T23:21:58.514Z,39.10
2023-03-31T23:24:25.786Z,39.60
2023-03-31T23:26:52.527Z,36.63
2023-03-31T23:29:19.155Z,25.63
2023-03-31T23:31:45.851Z,32.63
2023-03-31T23:34:13.958Z,30.20
2023-03-31T23:36:40.637Z,36.92
2023-03-31T23:39:07.244Z,40.83
2023-03-31T23:41:34.108Z,34.10
2023-03-31T23:44:00.734Z,38.03
2023-03-31T23:46:28.180Z,39.13
2023-03-31T23:48:54.983Z,31.13
2023-03-31T23:51:21.521Z,29.25
2023-03-31T23:53:48.123Z,38.35
2023-03-31T23:56:14.959Z,37.22
2023-03-31T23:58:43.097Z,40.10
